sensor_id;sensor_type;location;lat;lon;timestamp;P1;durP1;ratioP1;P2;durP2;ratioP2
62202;SDS011;48199;49.138;7.414;2023-12-07T00:01:52;61.10;;;27.00;;
62202;SDS011;48199;49.138;7.414;2023-12-07T00:04:17;56.73;;;24.17;;
62202;SDS011;48199;49.138;7.414;2023-12-07T00:06:43;48.47;;;23.40;;
62202;SDS011;48199;49.138;7.414;2023-12-07T00:09:08;52.67;;;25.73;;
62202;SDS011;48199;49.138;7.414;2023-12-07T00:11:33;43.97;;;21.60;;
62202;SDS011;48199;49.138;7.414;2023-12-07T00:13:58;37.10;;;18.98;;
62202;SDS011;48199;49.138;7.414;2023-12-07T00:16:23;26.98;;;15.18;;
62202;SDS011;48199;49.138;7.414;2023-12-07T00:18:49;29.00;;;14.63;;
62202;SDS011;48199;49.138;7.414;2023-12-07T00:21:14;30.50;;;16.90;;
62202;SDS011;48199;49.138;7.414;2023-12-07T00:23:39;44.70;;;21.35;;
62202;SDS011;48199;49.138;7.414;2023-12-07T00:26:04;55.55;;;25.67;;
62202;SDS011;48199;49.138;7.414;2023-12-07T00:28:30;45.55;;;20.02;;
62202;SDS011;48199;49.138;7.414;2023-12-07T00:30:55;33.58;;;16.95;;
62202;SDS011;48199;49.138;7.414;2023-12-07T00:33:21;31.00;;;16.20;;
62202;SDS011;48199;49.138;7.414;2023-12-07T00:35:46;33.30;;;15.57;;
62202;SDS011;48199;49.138;7.414;2023-12-07T00:38:12;30.40;;;15.07;;
62202;SDS011;48199;49.138;7.414;2023-12-07T00:40:37;31.67;;;15.43;;
62202;SDS011;48199;49.138;7.414;2023-12-07T00:43:04;36.28;;;14.32;;
62202;SDS011;48199;49.138;7.414;2023-12-07T00:45:30;28.98;;;13.77;;
62202;SDS011;48199;49.138;7.414;2023-12-07T00:47:55;25.75;;;12.73;;
62202;SDS011;48199;49.138;7.414;2023-12-07T00:50:21;26.48;;;12.00;;
62202;SDS011;48199;49.138;7.414;2023-12-07T00:52:46;21.65;;;11.45;;
62202;SDS011;48199;49.138;7.414;2023-12-07T00:55:12;23.77;;;11.55;;
62202;SDS011;48199;49.138;7.414;2023-12-07T00:57:37;19.55;;;11.68;;
62202;SDS011;48199;49.138;7.414;2023-12-07T01:00:02;21.63;;;12.80;;
62202;SDS011;48199;49.138;7.414;2023-12-07T01:02:29;19.60;;;11.60;;
62202;SDS011;48199;49.138;7.414;2023-12-07T01:04:54;19.70;;;11.13;;
62202;SDS011;48199;49.138;7.414;2023-12-07T01:07:20;25.17;;;11.95;;
62202;SDS011;48199;49.138;7.414;2023-12-07T01:09:45;23.35;;;11.77;;
62202;SDS011;48199;49.138;7.414;2023-12-07T01:12:11;22.10;;;11.65;;
62202;SDS011;48199;49.138;7.414;2023-12-07T01:14:36;21.55;;;11.25;;
62202;SDS011;48199;49.138;7.414;2023-12-07T01:17:01;21.25;;;11.57;;
62202;SDS011;48199;49.138;7.414;2023-12-07T01:19:27;24.30;;;12.18;;
62202;SDS011;48199;49.138;7.414;2023-12-07T01:21:52;19.87;;;11.20;;
62202;SDS011;48199;49.138;7.414;2023-12-07T01:24:17;25.47;;;11.37;;
62202;SDS011;48199;49.138;7.414;2023-12-07T01:26:43;23.20;;;11.87;;
62202;SDS011;48199;49.138;7.414;2023-12-07T01:29:08;22.58;;;11.80;;
62202;SDS011;48199;49.138;7.414;2023-12-07T01:31:33;20.07;;;11.63;;
62202;SDS011;48199;49.138;7.414;2023-12-07T01:33:58;18.47;;;10.57;;
62202;SDS011;48199;49.138;7.414;2023-12-07T01:36:24;24.37;;;11.10;;
62202;SDS011;48199;49.138;7.414;2023-12-07T01:38:49;22.20;;;10.63;;
62202;SDS011;48199;49.138;7.414;2023-12-07T01:41:15;28.38;;;11.70;;
62202;SDS011;48199;49.138;7.414;2023-12-07T01:43:46;18.83;;;10.93;;
62202;SDS011;48199;49.138;7.414;2023-12-07T01:46:11;24.80;;;13.00;;
62202;SDS011;48199;49.138;7.414;2023-12-07T01:48:37;21.83;;;11.30;;
62202;SDS011;48199;49.138;7.414;2023-12-07T01:51:02;24.50;;;12.23;;
62202;SDS011;48199;49.138;7.414;2023-12-07T01:53:28;21.90;;;12.05;;
62202;SDS011;48199;49.138;7.414;2023-12-07T01:55:54;22.17;;;11.23;;
62202;SDS011;48199;49.138;7.414;2023-12-07T01:58:19;28.60;;;12.40;;
62202;SDS011;48199;49.138;7.414;2023-12-07T02:00:44;20.42;;;11.57;;
62202;SDS011;48199;49.138;7.414;2023-12-07T02:03:10;20.90;;;11.05;;
62202;SDS011;48199;49.138;7.414;2023-12-07T02:05:36;21.48;;;11.73;;
62202;SDS011;48199;49.138;7.414;2023-12-07T02:08:02;27.75;;;12.52;;
62202;SDS011;48199;49.138;7.414;2023-12-07T02:10:27;19.13;;;11.40;;
62202;SDS011;48199;49.138;7.414;2023-12-07T02:12:53;26.67;;;11.90;;
62202;SDS011;48199;49.138;7.414;2023-12-07T02:15:19;23.10;;;11.50;;
62202;SDS011;48199;49.138;7.414;2023-12-07T02:17:49;30.02;;;12.90;;
62202;SDS011;48199;49.138;7.414;2023-12-07T02:22:45;21.67;;;11.67;;
62202;SDS011;48199;49.138;7.414;2023-12-07T02:25:14;29.58;;;12.30;;
62202;SDS011;48199;49.138;7.414;2023-12-07T02:27:40;20.92;;;12.00;;
62202;SDS011;48199;49.138;7.414;2023-12-07T02:30:06;21.60;;;11.80;;
62202;SDS011;48199;49.138;7.414;2023-12-07T02:32:32;23.95;;;11.93;;
62202;SDS011;48199;49.138;7.414;2023-12-07T02:34:57;26.60;;;13.18;;
62202;SDS011;48199;49.138;7.414;2023-12-07T02:37:22;25.63;;;12.65;;
62202;SDS011;48199;49.138;7.414;2023-12-07T02:39:49;25.25;;;13.68;;
62202;SDS011;48199;49.138;7.414;2023-12-07T02:42:16;24.02;;;13.73;;
62202;SDS011;48199;49.138;7.414;2023-12-07T02:44:41;23.00;;;12.85;;
62202;SDS011;48199;49.138;7.414;2023-12-07T02:47:07;26.38;;;12.77;;
62202;SDS011;48199;49.138;7.414;2023-12-07T02:49:33;27.15;;;12.45;;
62202;SDS011;48199;49.138;7.414;2023-12-07T02:51:58;21.87;;;11.27;;
62202;SDS011;48199;49.138;7.414;2023-12-07T02:54:23;29.55;;;13.45;;
62202;SDS011;48199;49.138;7.414;2023-12-07T02:56:48;22.90;;;11.93;;
62202;SDS011;48199;49.138;7.414;2023-12-07T02:59:14;30.47;;;12.47;;
62202;SDS011;48199;49.138;7.414;2023-12-07T03:01:39;24.20;;;12.67;;
62202;SDS011;48199;49.138;7.414;2023-12-07T03:04:04;24.17;;;12.33;;
62202;SDS011;48199;49.138;7.414;2023-12-07T03:06:29;22.47;;;12.43;;
62202;SDS011;48199;49.138;7.414;2023-12-07T03:08:54;23.37;;;12.50;;
62202;SDS011;48199;49.138;7.414;2023-12-07T03:11:21;25.80;;;12.95;;
62202;SDS011;48199;49.138;7.414;2023-12-07T03:13:46;28.98;;;12.80;;
62202;SDS011;48199;49.138;7.414;2023-12-07T03:16:11;26.50;;;13.73;;
62202;SDS011;48199;49.138;7.414;2023-12-07T03:18:37;24.48;;;13.07;;
62202;SDS011;48199;49.138;7.414;2023-12-07T03:21:02;22.48;;;11.32;;
62202;SDS011;48199;49.138;7.414;2023-12-07T03:23:28;21.23;;;11.43;;
62202;SDS011;48199;49.138;7.414;2023-12-07T03:25:53;25.40;;;11.38;;
62202;SDS011;48199;49.138;7.414;2023-12-07T03:28:18;28.52;;;12.55;;
62202;SDS011;48199;49.138;7.414;2023-12-07T03:30:44;25.30;;;12.77;;
62202;SDS011;48199;49.138;7.414;2023-12-07T03:33:09;23.13;;;12.00;;
62202;SDS011;48199;49.138;7.414;2023-12-07T03:35:34;22.00;;;11.73;;
62202;SDS011;48199;49.138;7.414;2023-12-07T03:37:59;26.07;;;11.50;;
62202;SDS011;48199;49.138;7.414;2023-12-07T03:40:24;23.03;;;11.33;;
62202;SDS011;48199;49.138;7.414;2023-12-07T03:42:49;27.67;;;12.70;;
62202;SDS011;48199;49.138;7.414;2023-12-07T03:45:15;22.80;;;11.70;;
62202;SDS011;48199;49.138;7.414;2023-12-07T03:47:40;25.25;;;12.77;;
62202;SDS011;48199;49.138;7.414;2023-12-07T03:50:05;28.90;;;12.43;;
62202;SDS011;48199;49.138;7.414;2023-12-07T03:52:31;25.05;;;12.98;;
62202;SDS011;48199;49.138;7.414;2023-12-07T03:54:56;27.27;;;12.43;;
62202;SDS011;48199;49.138;7.414;2023-12-07T03:57:21;24.33;;;13.10;;
62202;SDS011;48199;49.138;7.414;2023-12-07T03:59:46;31.05;;;13.52;;
62202;SDS011;48199;49.138;7.414;2023-12-07T04:02:12;26.95;;;14.75;;
62202;SDS011;48199;49.138;7.414;2023-12-07T04:04:37;27.47;;;14.20;;
62202;SDS011;48199;49.138;7.414;2023-12-07T04:07:03;25.65;;;13.23;;
62202;SDS011;48199;49.138;7.414;2023-12-07T04:09:28;26.48;;;13.27;;
62202;SDS011;48199;49.138;7.414;2023-12-07T04:11:55;27.08;;;12.88;;
62202;SDS011;48199;49.138;7.414;2023-12-07T04:14:21;37.90;;;12.23;;
62202;SDS011;48199;49.138;7.414;2023-12-07T04:16:46;32.70;;;12.90;;
62202;SDS011;48199;49.138;7.414;2023-12-07T04:19:12;30.83;;;12.05;;
62202;SDS011;48199;49.138;7.414;2023-12-07T04:21:37;23.88;;;11.82;;
62202;SDS011;48199;49.138;7.414;2023-12-07T04:24:03;20.17;;;10.70;;
62202;SDS011;48199;49.138;7.414;2023-12-07T04:26:28;21.52;;;10.88;;
62202;SDS011;48199;49.138;7.414;2023-12-07T04:28:54;22.10;;;11.13;;
62202;SDS011;48199;49.138;7.414;2023-12-07T04:31:19;24.50;;;11.00;;
62202;SDS011;48199;49.138;7.414;2023-12-07T04:33:46;34.35;;;12.05;;
62202;SDS011;48199;49.138;7.414;2023-12-07T04:36:11;30.85;;;12.85;;
62202;SDS011;48199;49.138;7.414;2023-12-07T04:38:37;40.92;;;12.18;;
62202;SDS011;48199;49.138;7.414;2023-12-07T04:41:02;35.47;;;12.05;;
62202;SDS011;48199;49.138;7.414;2023-12-07T04:43:28;33.10;;;13.02;;
62202;SDS011;48199;49.138;7.414;2023-12-07T04:45:53;34.00;;;9.88;;
62202;SDS011;48199;49.138;7.414;2023-12-07T04:48:18;29.15;;;9.68;;
62202;SDS011;48199;49.138;7.414;2023-12-07T04:50:43;24.48;;;10.65;;
62202;SDS011;48199;49.138;7.414;2023-12-07T04:53:09;42.50;;;10.73;;
62202;SDS011;48199;49.138;7.414;2023-12-07T04:55:34;22.48;;;9.75;;
62202;SDS011;48199;49.138;7.414;2023-12-07T04:58:00;19.80;;;9.15;;
62202;SDS011;48199;49.138;7.414;2023-12-07T05:00:25;22.17;;;9.27;;
62202;SDS011;48199;49.138;7.414;2023-12-07T05:02:52;23.20;;;10.63;;
62202;SDS011;48199;49.138;7.414;2023-12-07T05:05:17;22.67;;;9.70;;
62202;SDS011;48199;49.138;7.414;2023-12-07T05:07:42;23.77;;;9.50;;
62202;SDS011;48199;49.138;7.414;2023-12-07T05:10:08;20.02;;;9.82;;
62202;SDS011;48199;49.138;7.414;2023-12-07T05:12:34;22.63;;;11.73;;
62202;SDS011;48199;49.138;7.414;2023-12-07T05:15:00;26.80;;;10.25;;
62202;SDS011;48199;49.138;7.414;2023-12-07T05:17:26;24.45;;;8.60;;
62202;SDS011;48199;49.138;7.414;2023-12-07T05:19:51;25.85;;;10.73;;
62202;SDS011;48199;49.138;7.414;2023-12-07T05:22:16;17.33;;;8.90;;
62202;SDS011;48199;49.138;7.414;2023-12-07T05:24:41;18.08;;;8.55;;
62202;SDS011;48199;49.138;7.414;2023-12-07T05:27:07;15.20;;;7.50;;
62202;SDS011;48199;49.138;7.414;2023-12-07T05:29:32;16.13;;;8.53;;
62202;SDS011;48199;49.138;7.414;2023-12-07T05:31:57;24.48;;;10.60;;
62202;SDS011;48199;49.138;7.414;2023-12-07T05:34:22;18.35;;;8.90;;
62202;SDS011;48199;49.138;7.414;2023-12-07T05:36:48;13.98;;;7.15;;
62202;SDS011;48199;49.138;7.414;2023-12-07T05:39:13;14.77;;;6.80;;
62202;SDS011;48199;49.138;7.414;2023-12-07T05:41:38;15.60;;;7.40;;
62202;SDS011;48199;49.138;7.414;2023-12-07T05:44:03;16.53;;;7.10;;
62202;SDS011;48199;49.138;7.414;2023-12-07T05:46:29;12.05;;;6.50;;
62202;SDS011;48199;49.138;7.414;2023-12-07T05:48:54;13.93;;;7.50;;
62202;SDS011;48199;49.138;7.414;2023-12-07T05:51:19;19.43;;;8.23;;
62202;SDS011;48199;49.138;7.414;2023-12-07T05:53:45;14.20;;;7.25;;
62202;SDS011;48199;49.138;7.414;2023-12-07T05:56:10;14.93;;;7.00;;
62202;SDS011;48199;49.138;7.414;2023-12-07T05:58:36;13.75;;;6.50;;
62202;SDS011;48199;49.138;7.414;2023-12-07T06:01:01;12.73;;;6.18;;
62202;SDS011;48199;49.138;7.414;2023-12-07T06:03:27;19.38;;;8.07;;
62202;SDS011;48199;49.138;7.414;2023-12-07T06:05:52;23.88;;;7.28;;
62202;SDS011;48199;49.138;7.414;2023-12-07T06:08:18;16.13;;;6.40;;
62202;SDS011;48199;49.138;7.414;2023-12-07T06:10:43;14.30;;;6.87;;
62202;SDS011;48199;49.138;7.414;2023-12-07T06:13:09;15.17;;;6.33;;
62202;SDS011;48199;49.138;7.414;2023-12-07T06:15:34;16.10;;;6.40;;
62202;SDS011;48199;49.138;7.414;2023-12-07T06:17:59;14.23;;;7.33;;
62202;SDS011;48199;49.138;7.414;2023-12-07T06:20:25;16.20;;;7.05;;
62202;SDS011;48199;49.138;7.414;2023-12-07T06:22:50;13.65;;;6.82;;
62202;SDS011;48199;49.138;7.414;2023-12-07T06:25:15;21.53;;;7.37;;
62202;SDS011;48199;49.138;7.414;2023-12-07T06:27:41;20.60;;;7.75;;
62202;SDS011;48199;49.138;7.414;2023-12-07T06:30:06;20.70;;;8.20;;
62202;SDS011;48199;49.138;7.414;2023-12-07T06:32:32;13.63;;;6.70;;
62202;SDS011;48199;49.138;7.414;2023-12-07T06:34:57;16.52;;;7.35;;
62202;SDS011;48199;49.138;7.414;2023-12-07T06:37:23;22.73;;;7.25;;
62202;SDS011;48199;49.138;7.414;2023-12-07T06:39:48;15.50;;;6.07;;
62202;SDS011;48199;49.138;7.414;2023-12-07T06:42:14;10.85;;;5.30;;
62202;SDS011;48199;49.138;7.414;2023-12-07T06:44:39;11.20;;;5.30;;
62202;SDS011;48199;49.138;7.414;2023-12-07T06:47:04;12.48;;;5.80;;
62202;SDS011;48199;49.138;7.414;2023-12-07T06:49:30;14.68;;;5.25;;
62202;SDS011;48199;49.138;7.414;2023-12-07T06:51:56;13.30;;;6.10;;
62202;SDS011;48199;49.138;7.414;2023-12-07T06:54:21;11.03;;;5.33;;
62202;SDS011;48199;49.138;7.414;2023-12-07T06:56:47;13.52;;;6.25;;
62202;SDS011;48199;49.138;7.414;2023-12-07T06:59:12;9.83;;;4.53;;
62202;SDS011;48199;49.138;7.414;2023-12-07T07:01:37;10.10;;;4.83;;
62202;SDS011;48199;49.138;7.414;2023-12-07T07:04:03;11.63;;;5.00;;
62202;SDS011;48199;49.138;7.414;2023-12-07T07:06:29;11.43;;;4.97;;
62202;SDS011;48199;49.138;7.414;2023-12-07T07:08:54;14.97;;;6.37;;
62202;SDS011;48199;49.138;7.414;2023-12-07T07:11:19;11.87;;;5.63;;
62202;SDS011;48199;49.138;7.414;2023-12-07T07:13:44;12.80;;;6.13;;
62202;SDS011;48199;49.138;7.414;2023-12-07T07:16:09;9.27;;;5.03;;
62202;SDS011;48199;49.138;7.414;2023-12-07T07:18:35;10.13;;;5.03;;
62202;SDS011;48199;49.138;7.414;2023-12-07T07:21:02;12.57;;;5.78;;
62202;SDS011;48199;49.138;7.414;2023-12-07T07:23:29;10.15;;;5.40;;
62202;SDS011;48199;49.138;7.414;2023-12-07T07:25:54;16.20;;;5.00;;
62202;SDS011;48199;49.138;7.414;2023-12-07T07:28:19;12.02;;;5.03;;
62202;SDS011;48199;49.138;7.414;2023-12-07T07:30:45;19.17;;;5.65;;
62202;SDS011;48199;49.138;7.414;2023-12-07T07:33:10;14.47;;;5.83;;
62202;SDS011;48199;49.138;7.414;2023-12-07T07:35:35;13.45;;;5.85;;
62202;SDS011;48199;49.138;7.414;2023-12-07T07:38:01;17.35;;;6.90;;
62202;SDS011;48199;49.138;7.414;2023-12-07T07:40:26;17.50;;;6.00;;
62202;SDS011;48199;49.138;7.414;2023-12-07T07:42:51;15.00;;;7.17;;
62202;SDS011;48199;49.138;7.414;2023-12-07T07:45:17;17.30;;;7.03;;
62202;SDS011;48199;49.138;7.414;2023-12-07T07:47:42;16.45;;;5.93;;
62202;SDS011;48199;49.138;7.414;2023-12-07T07:50:07;13.53;;;6.33;;
62202;SDS011;48199;49.138;7.414;2023-12-07T07:52:33;13.38;;;6.72;;
62202;SDS011;48199;49.138;7.414;2023-12-07T07:54:59;11.35;;;5.57;;
62202;SDS011;48199;49.138;7.414;2023-12-07T07:57:24;20.75;;;6.43;;
62202;SDS011;48199;49.138;7.414;2023-12-07T07:59:50;12.70;;;6.37;;
62202;SDS011;48199;49.138;7.414;2023-12-07T08:02:15;10.73;;;5.57;;
62202;SDS011;48199;49.138;7.414;2023-12-07T08:04:40;11.37;;;5.90;;
62202;SDS011;48199;49.138;7.414;2023-12-07T08:07:05;10.73;;;5.60;;
62202;SDS011;48199;49.138;7.414;2023-12-07T08:09:32;22.27;;;6.20;;
62202;SDS011;48199;49.138;7.414;2023-12-07T08:11:58;11.32;;;5.28;;
62202;SDS011;48199;49.138;7.414;2023-12-07T08:14:23;11.63;;;4.57;;
62202;SDS011;48199;49.138;7.414;2023-12-07T08:16:48;15.03;;;6.50;;
62202;SDS011;48199;49.138;7.414;2023-12-07T08:19:13;12.38;;;5.47;;
62202;SDS011;48199;49.138;7.414;2023-12-07T08:21:38;17.33;;;5.10;;
62202;SDS011;48199;49.138;7.414;2023-12-07T08:24:04;10.50;;;4.85;;
62202;SDS011;48199;49.138;7.414;2023-12-07T08:26:30;9.57;;;4.32;;
62202;SDS011;48199;49.138;7.414;2023-12-07T08:28:55;12.40;;;4.70;;
62202;SDS011;48199;49.138;7.414;2023-12-07T08:31:21;9.35;;;5.13;;
62202;SDS011;48199;49.138;7.414;2023-12-07T08:33:48;10.70;;;5.50;;
62202;SDS011;48199;49.138;7.414;2023-12-07T08:36:13;8.83;;;4.60;;
62202;SDS011;48199;49.138;7.414;2023-12-07T08:38:38;12.67;;;5.33;;
62202;SDS011;48199;49.138;7.414;2023-12-07T08:41:03;15.87;;;4.53;;
62202;SDS011;48199;49.138;7.414;2023-12-07T08:43:29;10.27;;;5.35;;
62202;SDS011;48199;49.138;7.414;2023-12-07T08:45:55;8.82;;;4.68;;
62202;SDS011;48199;49.138;7.414;2023-12-07T08:48:20;8.47;;;5.10;;
62202;SDS011;48199;49.138;7.414;2023-12-07T08:50:46;7.13;;;4.07;;
62202;SDS011;48199;49.138;7.414;2023-12-07T08:53:11;12.50;;;5.30;;
62202;SDS011;48199;49.138;7.414;2023-12-07T08:55:36;12.18;;;5.18;;
62202;SDS011;48199;49.138;7.414;2023-12-07T08:58:01;9.07;;;4.40;;
62202;SDS011;48199;49.138;7.414;2023-12-07T09:00:30;9.48;;;4.95;;
62202;SDS011;48199;49.138;7.414;2023-12-07T09:02:55;13.98;;;7.22;;
62202;SDS011;48199;49.138;7.414;2023-12-07T09:05:20;11.40;;;5.03;;
62202;SDS011;48199;49.138;7.414;2023-12-07T09:07:45;12.65;;;5.75;;
62202;SDS011;48199;49.138;7.414;2023-12-07T09:10:11;7.50;;;4.13;;
62202;SDS011;48199;49.138;7.414;2023-12-07T09:12:36;10.90;;;5.03;;
62202;SDS011;48199;49.138;7.414;2023-12-07T09:15:02;8.30;;;5.03;;
62202;SDS011;48199;49.138;7.414;2023-12-07T09:17:28;8.10;;;4.53;;
62202;SDS011;48199;49.138;7.414;2023-12-07T09:19:53;13.03;;;4.83;;
62202;SDS011;48199;49.138;7.414;2023-12-07T09:22:19;10.00;;;5.20;;
62202;SDS011;48199;49.138;7.414;2023-12-07T09:24:45;13.85;;;5.90;;
62202;SDS011;48199;49.138;7.414;2023-12-07T09:27:11;11.50;;;5.88;;
62202;SDS011;48199;49.138;7.414;2023-12-07T09:29:36;11.73;;;5.25;;
62202;SDS011;48199;49.138;7.414;2023-12-07T09:32:02;11.05;;;6.28;;
62202;SDS011;48199;49.138;7.414;2023-12-07T09:34:27;8.88;;;5.38;;
62202;SDS011;48199;49.138;7.414;2023-12-07T09:37:05;11.40;;;5.00;;
62202;SDS011;48199;49.138;7.414;2023-12-07T09:39:30;19.15;;;6.78;;
62202;SDS011;48199;49.138;7.414;2023-12-07T09:41:55;10.53;;;5.53;;
62202;SDS011;48199;49.138;7.414;2023-12-07T09:44:21;9.50;;;5.10;;
62202;SDS011;48199;49.138;7.414;2023-12-07T09:46:46;11.10;;;6.03;;
62202;SDS011;48199;49.138;7.414;2023-12-07T09:49:11;12.10;;;6.57;;
62202;SDS011;48199;49.138;7.414;2023-12-07T09:51:36;16.93;;;7.07;;
62202;SDS011;48199;49.138;7.414;2023-12-07T09:54:02;10.48;;;5.80;;
62202;SDS011;48199;49.138;7.414;2023-12-07T09:56:28;16.90;;;6.65;;
62202;SDS011;48199;49.138;7.414;2023-12-07T09:58:53;10.23;;;5.10;;
62202;SDS011;48199;49.138;7.414;2023-12-07T10:01:18;13.10;;;5.82;;
62202;SDS011;48199;49.138;7.414;2023-12-07T10:03:43;10.57;;;5.80;;
62202;SDS011;48199;49.138;7.414;2023-12-07T10:06:11;11.82;;;6.18;;
62202;SDS011;48199;49.138;7.414;2023-12-07T10:08:37;12.38;;;6.10;;
62202;SDS011;48199;49.138;7.414;2023-12-07T10:11:06;10.60;;;5.72;;
62202;SDS011;48199;49.138;7.414;2023-12-07T10:13:32;9.88;;;5.47;;
62202;SDS011;48199;49.138;7.414;2023-12-07T10:16:10;9.35;;;5.50;;
62202;SDS011;48199;49.138;7.414;2023-12-07T10:18:36;8.32;;;5.38;;
62202;SDS011;48199;49.138;7.414;2023-12-07T10:21:01;15.02;;;6.25;;
62202;SDS011;48199;49.138;7.414;2023-12-07T10:23:28;11.20;;;5.47;;
62202;SDS011;48199;49.138;7.414;2023-12-07T10:25:53;11.40;;;5.68;;
62202;SDS011;48199;49.138;7.414;2023-12-07T10:28:18;8.57;;;5.40;;
62202;SDS011;48199;49.138;7.414;2023-12-07T10:30:44;12.07;;;6.20;;
62202;SDS011;48199;49.138;7.414;2023-12-07T10:33:10;9.98;;;5.78;;
62202;SDS011;48199;49.138;7.414;2023-12-07T10:35:38;10.07;;;5.82;;
62202;SDS011;48199;49.138;7.414;2023-12-07T10:38:04;9.98;;;5.25;;
62202;SDS011;48199;49.138;7.414;2023-12-07T10:40:30;13.82;;;6.72;;
62202;SDS011;48199;49.138;7.414;2023-12-07T10:42:56;12.52;;;5.97;;
62202;SDS011;48199;49.138;7.414;2023-12-07T10:45:21;10.13;;;5.65;;
62202;SDS011;48199;49.138;7.414;2023-12-07T10:47:50;9.07;;;5.05;;
62202;SDS011;48199;49.138;7.414;2023-12-07T10:50:16;12.13;;;6.15;;
62202;SDS011;48199;49.138;7.414;2023-12-07T10:52:45;9.70;;;5.78;;
62202;SDS011;48199;49.138;7.414;2023-12-07T10:55:15;9.70;;;5.82;;
62202;SDS011;48199;49.138;7.414;2023-12-07T10:57:42;11.32;;;6.28;;
62202;SDS011;48199;49.138;7.414;2023-12-07T11:00:07;11.20;;;5.60;;
62202;SDS011;48199;49.138;7.414;2023-12-07T11:02:33;10.18;;;5.65;;
62202;SDS011;48199;49.138;7.414;2023-12-07T11:04:59;12.30;;;5.95;;
62202;SDS011;48199;49.138;7.414;2023-12-07T11:07:25;12.52;;;6.15;;
62202;SDS011;48199;49.138;7.414;2023-12-07T11:09:53;9.57;;;5.63;;
62202;SDS011;48199;49.138;7.414;2023-12-07T11:13:05;17.85;;;8.38;;
62202;SDS011;48199;49.138;7.414;2023-12-07T11:15:12;10.75;;;5.93;;
62202;SDS011;48199;49.138;7.414;2023-12-07T11:17:49;12.68;;;5.47;;
62202;SDS011;48199;49.138;7.414;2023-12-07T11:20:57;8.68;;;5.30;;
62202;SDS011;48199;49.138;7.414;2023-12-07T11:23:04;10.80;;;6.05;;
62202;SDS011;48199;49.138;7.414;2023-12-07T11:25:29;8.68;;;5.60;;
62202;SDS011;48199;49.138;7.414;2023-12-07T11:28:01;7.68;;;4.75;;
62202;SDS011;48199;49.138;7.414;2023-12-07T11:30:27;12.38;;;5.20;;
62202;SDS011;48199;49.138;7.414;2023-12-07T11:32:52;9.68;;;5.78;;
62202;SDS011;48199;49.138;7.414;2023-12-07T11:35:17;10.73;;;5.53;;
62202;SDS011;48199;49.138;7.414;2023-12-07T11:40:41;10.80;;;5.70;;
62202;SDS011;48199;49.138;7.414;2023-12-07T11:43:06;10.13;;;5.32;;
62202;SDS011;48199;49.138;7.414;2023-12-07T11:48:07;7.17;;;4.73;;
62202;SDS011;48199;49.138;7.414;2023-12-07T11:50:32;9.70;;;5.00;;
62202;SDS011;48199;49.138;7.414;2023-12-07T11:52:58;13.23;;;4.63;;
62202;SDS011;48199;49.138;7.414;2023-12-07T11:55:24;8.88;;;4.05;;
62202;SDS011;48199;49.138;7.414;2023-12-07T11:57:49;7.03;;;4.30;;
62202;SDS011;48199;49.138;7.414;2023-12-07T12:00:15;11.15;;;4.60;;
62202;SDS011;48199;49.138;7.414;2023-12-07T12:02:40;11.60;;;4.80;;
62202;SDS011;48199;49.138;7.414;2023-12-07T12:05:05;8.63;;;5.13;;
62202;SDS011;48199;49.138;7.414;2023-12-07T12:07:31;6.68;;;3.88;;
62202;SDS011;48199;49.138;7.414;2023-12-07T12:09:56;7.77;;;4.33;;
62202;SDS011;48199;49.138;7.414;2023-12-07T12:12:21;7.17;;;3.67;;
62202;SDS011;48199;49.138;7.414;2023-12-07T12:14:46;8.00;;;4.57;;
62202;SDS011;48199;49.138;7.414;2023-12-07T12:17:14;8.07;;;4.57;;
62202;SDS011;48199;49.138;7.414;2023-12-07T12:19:39;8.85;;;4.88;;
62202;SDS011;48199;49.138;7.414;2023-12-07T12:22:05;7.33;;;4.23;;
62202;SDS011;48199;49.138;7.414;2023-12-07T12:24:31;7.53;;;4.50;;
62202;SDS011;48199;49.138;7.414;2023-12-07T12:26:56;10.18;;;5.13;;
62202;SDS011;48199;49.138;7.414;2023-12-07T12:29:22;8.65;;;4.60;;
62202;SDS011;48199;49.138;7.414;2023-12-07T12:31:47;11.20;;;5.40;;
62202;SDS011;48199;49.138;7.414;2023-12-07T12:34:13;8.73;;;4.05;;
62202;SDS011;48199;49.138;7.414;2023-12-07T12:36:38;8.52;;;3.63;;
62202;SDS011;48199;49.138;7.414;2023-12-07T12:39:03;5.38;;;3.15;;
62202;SDS011;48199;49.138;7.414;2023-12-07T12:41:33;5.65;;;3.65;;
62202;SDS011;48199;49.138;7.414;2023-12-07T12:43:58;6.53;;;3.55;;
62202;SDS011;48199;49.138;7.414;2023-12-07T12:46:24;7.95;;;3.78;;
62202;SDS011;48199;49.138;7.414;2023-12-07T12:48:56;7.60;;;3.30;;
62202;SDS011;48199;49.138;7.414;2023-12-07T12:53:47;9.50;;;3.25;;
62202;SDS011;48199;49.138;7.414;2023-12-07T12:56:13;4.93;;;3.20;;
62202;SDS011;48199;49.138;7.414;2023-12-07T12:58:39;4.85;;;2.78;;
62202;SDS011;48199;49.138;7.414;2023-12-07T13:01:04;4.13;;;2.73;;
62202;SDS011;48199;49.138;7.414;2023-12-07T13:03:29;5.70;;;2.70;;
62202;SDS011;48199;49.138;7.414;2023-12-07T13:05:54;4.43;;;2.73;;
62202;SDS011;48199;49.138;7.414;2023-12-07T13:08:20;5.60;;;2.57;;
62202;SDS011;48199;49.138;7.414;2023-12-07T13:10:46;4.35;;;2.30;;
62202;SDS011;48199;49.138;7.414;2023-12-07T13:13:11;5.37;;;2.73;;
62202;SDS011;48199;49.138;7.414;2023-12-07T13:15:36;4.43;;;2.47;;
62202;SDS011;48199;49.138;7.414;2023-12-07T13:18:02;5.78;;;2.90;;
62202;SDS011;48199;49.138;7.414;2023-12-07T13:20:27;4.75;;;2.63;;
62202;SDS011;48199;49.138;7.414;2023-12-07T13:22:53;4.97;;;2.20;;
62202;SDS011;48199;49.138;7.414;2023-12-07T13:25:18;3.30;;;2.13;;
62202;SDS011;48199;49.138;7.414;2023-12-07T13:27:43;5.27;;;2.10;;
62202;SDS011;48199;49.138;7.414;2023-12-07T13:30:09;4.93;;;2.50;;
62202;SDS011;48199;49.138;7.414;2023-12-07T13:32:34;9.52;;;2.88;;
62202;SDS011;48199;49.138;7.414;2023-12-07T13:35:02;7.13;;;3.00;;
62202;SDS011;48199;49.138;7.414;2023-12-07T13:37:27;7.10;;;2.92;;
62202;SDS011;48199;49.138;7.414;2023-12-07T13:39:52;4.43;;;2.57;;
62202;SDS011;48199;49.138;7.414;2023-12-07T13:42:23;5.07;;;2.80;;
62202;SDS011;48199;49.138;7.414;2023-12-07T13:44:51;6.00;;;2.80;;
62202;SDS011;48199;49.138;7.414;2023-12-07T13:47:17;7.43;;;2.78;;
62202;SDS011;48199;49.138;7.414;2023-12-07T13:49:42;5.53;;;2.80;;
62202;SDS011;48199;49.138;7.414;2023-12-07T13:52:07;8.90;;;3.30;;
62202;SDS011;48199;49.138;7.414;2023-12-07T13:54:32;4.50;;;2.63;;
62202;SDS011;48199;49.138;7.414;2023-12-07T13:56:58;10.83;;;4.70;;
62202;SDS011;48199;49.138;7.414;2023-12-07T13:59:23;4.32;;;2.67;;
62202;SDS011;48199;49.138;7.414;2023-12-07T14:01:48;6.70;;;2.58;;
62202;SDS011;48199;49.138;7.414;2023-12-07T14:04:14;3.85;;;2.35;;
62202;SDS011;48199;49.138;7.414;2023-12-07T14:06:39;5.15;;;2.90;;
62202;SDS011;48199;49.138;7.414;2023-12-07T14:09:04;4.77;;;2.93;;
62202;SDS011;48199;49.138;7.414;2023-12-07T14:11:29;4.63;;;2.63;;
62202;SDS011;48199;49.138;7.414;2023-12-07T14:13:55;4.50;;;2.40;;
62202;SDS011;48199;49.138;7.414;2023-12-07T14:16:20;3.83;;;2.47;;
62202;SDS011;48199;49.138;7.414;2023-12-07T14:18:46;4.80;;;2.80;;
62202;SDS011;48199;49.138;7.414;2023-12-07T14:21:11;3.63;;;2.40;;
62202;SDS011;48199;49.138;7.414;2023-12-07T14:23:36;3.97;;;2.63;;
62202;SDS011;48199;49.138;7.414;2023-12-07T14:26:02;3.30;;;2.30;;
62202;SDS011;48199;49.138;7.414;2023-12-07T14:28:27;5.13;;;2.80;;
62202;SDS011;48199;49.138;7.414;2023-12-07T14:30:55;6.20;;;3.30;;
62202;SDS011;48199;49.138;7.414;2023-12-07T14:33:22;5.88;;;3.05;;
62202;SDS011;48199;49.138;7.414;2023-12-07T14:35:47;4.70;;;2.38;;